Time,TemperatureF,DewpointF,PressureIn,WindDirection,WindDirectionDegrees,WindSpeedMPH,WindSpeedGustMPH,Humidity,HourlyPrecipIn,Conditions,Clouds,dailyrainin,SoftwareType,DateUTC
2013-05-28 00:02:00,51.8,43.4,29.53,WNW,286,0.0,0.0,73,0.00,,---,0.00,VWS V14.01,2013-05-28 07:02:00,
2013-05-28 00:07:00,52.0,43.6,29.53,WNW,290,4.9,4.9,73,0.00,,---,0.00,VWS V14.01,2013-05-28 07:07:00,
2013-05-28 00:12:00,52.0,43.6,29.53,WNW,287,0.0,0.0,73,0.00,,---,0.00,VWS V14.01,2013-05-28 07:12:00,
2013-05-28 00:17:00,52.0,44.0,29.56,WNW,296,0.0,0.0,74,0.00,,---,0.00,VWS V14.01,2013-05-28 07:17:00,
2013-05-28 00:22:00,52.0,44.0,29.56,WNW,285,0.0,0.0,74,0.00,,---,0.00,VWS V14.01,2013-05-28 07:22:00,
2013-05-28 00:27:00,52.0,44.0,29.56,WNW,285,0.0,0.0,74,0.00,,---,0.00,VWS V14.01,2013-05-28 07:27:00,
2013-05-28 00:32:00,52.0,44.0,29.56,WNW,285,0.0,0.0,74,0.00,,---,0.00,VWS V14.01,2013-05-28 07:32:00,
2013-05-28 00:37:00,51.8,43.8,29.56,West,274,3.6,3.6,74,0.00,,---,0.00,VWS V14.01,2013-05-28 07:37:00,
2013-05-28 00:42:00,51.8,43.8,29.56,WSW,249,3.1,3.1,74,0.00,,---,0.00,VWS V14.01,2013-05-28 07:42:00,
2013-05-28 00:47:00,51.4,43.4,29.56,WSW,244,5.4,5.4,74,0.00,,---,0.00,VWS V14.01,2013-05-28 07:47:00,
2013-05-28 00:52:00,51.3,43.3,29.56,West,263,3.1,3.1,74,0.00,,---,0.00,VWS V14.01,2013-05-28 07:52:00,
2013-05-28 00:57:00,51.1,43.1,29.56,WSW,252,4.0,4.0,74,0.00,,---,0.00,VWS V14.01,2013-05-28 07:57:00,
2013-05-28 01:02:00,51.1,43.1,29.56,SW,236,3.6,3.6,74,0.00,,---,0.00,VWS V14.01,2013-05-28 08:02:00,
2013-05-28 01:07:00,51.1,43.1,29.56,SW,236,4.9,4.9,74,0.00,,---,0.00,VWS V14.01,2013-05-28 08:07:00,
2013-05-28 01:12:00,51.1,43.1,29.56,SW,220,4.5,5.8,74,0.00,,---,0.00,VWS V14.01,2013-05-28 08:12:00,
2013-05-28 01:17:00,51.1,43.1,29.56,WSW,243,3.1,3.1,74,0.00,,---,0.00,VWS V14.01,2013-05-28 08:17:00,
2013-05-28 01:22:00,51.1,43.1,29.56,SW,233,3.6,3.6,74,0.00,,---,0.00,VWS V14.01,2013-05-28 08:22:00,
2013-05-28 01:27:00,51.1,42.7,29.56,SW,235,2.7,5.8,73,0.00,,---,0.00,VWS V14.01,2013-05-28 08:27:00,
2013-05-28 01:32:00,51.1,42.7,29.56,SW,226,3.6,3.6,73,0.00,,---,0.00,VWS V14.01,2013-05-28 08:32:00,
2013-05-28 01:37:00,51.1,43.1,29.56,SW,226,2.7,2.7,74,0.00,,---,0.00,VWS V14.01,2013-05-28 08:37:00,
2013-05-28 01:42:00,51.1,43.1,29.56,SW,230,3.6,3.6,74,0.00,,---,0.00,VWS V14.01,2013-05-28 08:42:00,
2013-05-28 01:47:00,51.1,43.1,29.56,SW,226,4.5,4.5,74,0.00,,---,0.00,VWS V14.01,2013-05-28 08:47:00,
2013-05-28 01:52:00,51.1,43.1,29.56,SW,226,2.7,2.7,74,0.00,,---,0.00,VWS V14.01,2013-05-28 08:52:00,
2013-05-28 01:57:00,51.1,43.1,29.56,SW,235,2.7,2.7,74,0.00,,---,0.00,VWS V14.01,2013-05-28 08:57:00,
2013-05-28 02:02:00,51.1,42.7,29.56,SW,229,5.4,5.4,73,0.00,,---,0.00,VWS V14.01,2013-05-28 09:02:00,
2013-05-28 02:07:00,51.3,42.9,29.56,SW,231,3.1,3.1,73,0.00,,---,0.00,VWS V14.01,2013-05-28 09:07:00,
2013-05-28 02:12:00,51.3,42.5,29.56,WSW,240,3.6,3.6,72,0.00,,---,0.00,VWS V14.01,2013-05-28 09:12:00,
2013-05-28 02:17:00,51.1,41.7,29.56,WSW,243,3.6,3.6,70,0.00,,---,0.00,VWS V14.01,2013-05-28 09:17:00,
2013-05-28 02:22:00,51.1,41.7,29.56,West,270,5.8,5.8,70,0.00,,---,0.00,VWS V14.01,2013-05-28 09:22:00,
2013-05-28 02:27:00,51.1,40.9,29.56,WSW,254,4.0,4.0,68,0.00,,---,0.00,VWS V14.01,2013-05-28 09:27:00,
2013-05-28 02:32:00,51.1,40.1,29.56,West,261,2.7,2.7,66,0.00,,---,0.00,VWS V14.01,2013-05-28 09:32:00,
2013-05-28 02:37:00,51.1,40.1,29.56,WSW,257,5.4,5.4,66,0.00,,---,0.00,VWS V14.01,2013-05-28 09:37:00,
2013-05-28 02:42:00,51.3,39.1,29.56,West,269,3.6,3.6,63,0.00,,---,0.00,VWS V14.01,2013-05-28 09:42:00,
2013-05-28 02:47:00,51.3,39.1,29.56,West,269,2.7,2.7,63,0.00,,---,0.00,VWS V14.01,2013-05-28 09:47:00,
2013-05-28 02:52:00,51.3,39.1,29.56,West,279,0.0,0.0,63,0.00,,---,0.00,VWS V14.01,2013-05-28 09:52:00,
2013-05-28 02:57:00,51.4,39.3,29.56,WNW,283,4.0,6.3,63,0.00,,---,0.00,VWS V14.01,2013-05-28 09:57:00,
2013-05-28 03:02:00,51.4,39.3,29.56,WNW,282,0.0,0.0,63,0.00,,---,0.00,VWS V14.01,2013-05-28 10:02:00,
2013-05-28 03:07:00,51.4,39.3,29.56,West,276,2.7,2.7,63,0.00,,---,0.00,VWS V14.01,2013-05-28 10:07:00,
2013-05-28 03:12:00,51.6,38.6,29.56,West,278,3.6,3.6,61,0.00,,---,0.00,VWS V14.01,2013-05-28 10:12:00,
2013-05-28 03:17:00,51.3,36.1,29.56,WNW,296,5.4,5.4,56,0.00,,---,0.00,VWS V14.01,2013-05-28 10:17:00,
2013-05-28 03:22:00,51.3,35.7,29.56,West,264,5.8,5.8,55,0.00,,---,0.00,VWS V14.01,2013-05-28 10:22:00,
2013-05-28 03:27:00,51.4,36.7,29.56,WNW,290,5.4,5.4,57,0.00,,---,0.00,VWS V14.01,2013-05-28 10:27:00,
2013-05-28 03:32:00,51.4,36.7,29.56,West,265,5.8,5.8,57,0.00,,---,0.00,VWS V14.01,2013-05-28 10:32:00,
2013-05-28 03:37:00,51.6,39.0,29.56,West,267,0.0,0.0,62,0.00,,---,0.00,VWS V14.01,2013-05-28 10:37:00,
2013-05-28 03:42:00,51.6,39.0,29.56,WSW,258,4.0,4.0,62,0.00,,---,0.00,VWS V14.01,2013-05-28 10:42:00,
2013-05-28 03:47:00,51.6,39.0,29.56,West,264,4.0,4.0,62,0.00,,---,0.00,VWS V14.01,2013-05-28 10:47:00,
2013-05-28 03:52:00,51.6,39.0,29.56,SSW,213,8.1,8.1,62,0.00,,---,0.00,VWS V14.01,2013-05-28 10:52:00,
2013-05-28 03:57:00,51.4,35.4,29.56,West,266,4.0,5.8,54,0.00,,---,0.00,VWS V14.01,2013-05-28 10:57:00,
2013-05-28 04:02:00,51.4,34.4,29.56,WNW,295,8.3,8.3,52,0.00,,---,0.00,VWS V14.01,2013-05-28 11:02:00,
2013-05-28 04:07:00,51.4,34.9,29.56,West,269,5.4,5.4,53,0.00,,---,0.00,VWS V14.01,2013-05-28 11:07:00,
2013-05-28 04:12:00,51.1,35.5,29.56,WNW,283,4.9,4.9,55,0.00,,---,0.00,VWS V14.01,2013-05-28 11:12:00,
2013-05-28 04:17:00,51.1,36.4,29.56,West,266,4.0,4.0,57,0.00,,---,0.00,VWS V14.01,2013-05-28 11:17:00,
2013-05-28 04:22:00,51.1,36.4,29.56,West,266,4.0,4.0,57,0.00,,---,0.00,VWS V14.01,2013-05-28 11:22:00,
2013-05-28 04:27:00,50.9,37.5,29.56,West,265,2.7,2.7,60,0.00,,---,0.00,VWS V14.01,2013-05-28 11:27:00,
2013-05-28 04:32:00,50.9,38.8,29.56,West,265,2.7,2.7,63,0.00,,---,0.00,VWS V14.01,2013-05-28 11:32:00,
2013-05-28 04:37:00,50.9,39.2,29.56,West,259,0.0,0.0,64,0.00,,---,0.00,VWS V14.01,2013-05-28 11:37:00,
2013-05-28 04:42:00,50.9,39.2,29.56,WSW,245,4.9,4.9,64,0.00,,---,0.00,VWS V14.01,2013-05-28 11:42:00,
2013-05-28 04:47:00,51.1,37.3,29.56,West,272,0.0,0.0,59,0.00,,---,0.00,VWS V14.01,2013-05-28 11:47:00,
2013-05-28 04:52:00,51.1,37.3,29.56,WSW,245,7.6,7.6,59,0.00,,---,0.00,VWS V14.01,2013-05-28 11:52:00,
2013-05-28 04:57:00,51.3,35.7,29.56,WSW,239,4.0,4.0,55,0.00,,---,0.00,VWS V14.01,2013-05-28 11:57:00,
2013-05-28 05:02:00,51.3,35.2,29.56,SW,231,4.0,4.0,54,0.00,,---,0.00,VWS V14.01,2013-05-28 12:02:00,
2013-05-28 05:07:00,51.3,34.7,29.56,SW,232,4.9,5.4,53,0.00,,---,0.00,VWS V14.01,2013-05-28 12:07:00,
2013-05-28 05:12:00,51.3,34.2,29.56,West,263,7.6,7.6,52,0.00,,---,0.00,VWS V14.01,2013-05-28 12:12:00,
2013-05-28 05:17:00,51.3,34.7,29.56,WSW,249,5.4,6.3,53,0.00,,---,0.00,VWS V14.01,2013-05-28 12:17:00,
2013-05-28 05:22:00,51.3,34.2,29.56,WSW,241,5.8,5.8,52,0.00,,---,0.00,VWS V14.01,2013-05-28 12:22:00,
2013-05-28 05:27:00,51.3,33.8,29.56,NW,307,5.4,5.4,51,0.00,,---,0.00,VWS V14.01,2013-05-28 12:27:00,
2013-05-28 05:32:00,51.1,35.0,29.56,WNW,297,5.8,5.8,54,0.00,,---,0.00,VWS V14.01,2013-05-28 12:32:00,
2013-05-28 05:37:00,51.1,36.0,29.56,WSW,253,5.4,5.4,56,0.00,,---,0.00,VWS V14.01,2013-05-28 12:37:00,
2013-05-28 05:42:00,51.1,36.8,29.56,WNW,289,7.6,7.6,58,0.00,,---,0.00,VWS V14.01,2013-05-28 12:42:00,
2013-05-28 05:47:00,51.1,37.7,29.56,WSW,257,7.6,7.6,60,0.00,,---,0.00,VWS V14.01,2013-05-28 12:47:00,
2013-05-28 05:52:00,51.1,37.7,29.56,West,280,5.8,5.8,60,0.00,,---,0.00,VWS V14.01,2013-05-28 12:52:00,
2013-05-28 05:57:00,50.9,38.8,29.56,West,265,0.0,0.0,63,0.00,,---,0.00,VWS V14.01,2013-05-28 12:57:00,
2013-05-28 06:02:00,51.1,38.9,29.56,WSW,241,0.0,0.0,63,0.00,,---,0.00,VWS V14.01,2013-05-28 13:02:00,
2013-05-28 06:07:00,51.1,38.9,29.56,WSW,254,0.0,0.0,63,0.00,,---,0.00,VWS V14.01,2013-05-28 13:07:00,
2013-05-28 06:12:00,51.1,40.5,29.56,SW,235,2.7,2.7,67,0.00,,---,0.00,VWS V14.01,2013-05-28 13:12:00,
2013-05-28 06:17:00,51.3,40.7,29.56,WSW,247,2.7,3.1,67,0.00,,---,0.00,VWS V14.01,2013-05-28 13:17:00,
2013-05-28 06:22:00,51.3,40.3,29.56,WSW,240,5.4,5.4,66,0.00,,---,0.00,VWS V14.01,2013-05-28 13:22:00,
2013-05-28 06:27:00,51.3,40.3,29.56,West,266,2.2,2.2,66,0.00,,---,0.00,VWS V14.01,2013-05-28 13:27:00,
2013-05-28 06:32:00,51.4,38.5,29.56,WSW,258,4.9,4.9,61,0.00,,---,0.00,VWS V14.01,2013-05-28 13:32:00,
2013-05-28 06:37:00,51.4,35.8,29.56,WNW,285,7.6,7.6,55,0.00,,---,0.00,VWS V14.01,2013-05-28 13:37:00,
2013-05-28 06:42:00,51.6,35.5,29.56,WSW,253,5.4,5.4,54,0.00,,---,0.00,VWS V14.01,2013-05-28 13:42:00,
2013-05-28 06:47:00,51.8,34.3,29.56,WSW,251,5.8,5.8,51,0.00,,---,0.00,VWS V14.01,2013-05-28 13:47:00,
2013-05-28 06:52:00,51.8,33.8,29.56,WSW,257,4.0,4.0,50,0.00,,---,0.00,VWS V14.01,2013-05-28 13:52:00,
2013-05-28 06:57:00,51.8,33.8,29.56,WSW,253,4.0,4.0,50,0.00,,---,0.00,VWS V14.01,2013-05-28 13:57:00,
2013-05-28 07:02:00,51.8,34.8,29.56,West,262,7.6,7.6,52,0.00,,---,0.00,VWS V14.01,2013-05-28 14:02:00,
2013-05-28 07:07:00,52.0,36.3,29.56,WNW,296,6.3,6.3,55,0.00,,---,0.00,VWS V14.01,2013-05-28 14:07:00,
2013-05-28 07:12:00,51.8,35.7,29.56,West,268,8.7,8.7,54,0.00,,---,0.00,VWS V14.01,2013-05-28 14:12:00,
2013-05-28 07:17:00,51.8,35.7,29.56,West,274,5.4,5.4,54,0.00,,---,0.00,VWS V14.01,2013-05-28 14:17:00,
2013-05-28 07:22:00,51.8,35.7,29.59,WNW,293,8.1,8.1,54,0.00,,---,0.00,VWS V14.01,2013-05-28 14:22:00,
2013-05-28 07:27:00,51.8,35.7,29.59,West,273,5.8,5.8,54,0.00,,---,0.00,VWS V14.01,2013-05-28 14:27:00,
2013-05-28 07:32:00,51.8,39.6,29.59,West,265,4.9,4.9,63,0.00,,---,0.00,VWS V14.01,2013-05-28 14:32:00,
2013-05-28 07:37:00,51.8,39.6,29.59,West,268,8.3,8.3,63,0.00,,---,0.00,VWS V14.01,2013-05-28 14:37:00,
2013-05-28 07:42:00,52.0,41.0,29.59,West,275,3.6,3.6,66,0.00,,---,0.00,VWS V14.01,2013-05-28 14:42:00,
2013-05-28 07:47:00,52.2,41.5,29.59,West,277,4.9,4.9,67,0.00,,---,0.00,VWS V14.01,2013-05-28 14:47:00,
2013-05-28 07:52:00,52.2,41.5,29.59,WNW,287,5.4,5.4,67,0.00,,---,0.00,VWS V14.01,2013-05-28 14:52:00,
2013-05-28 07:57:00,53.1,43.2,29.59,WNW,283,5.4,5.4,69,0.00,,---,0.00,VWS V14.01,2013-05-28 14:57:00,
2013-05-28 08:02:00,53.6,43.7,29.59,West,281,4.0,4.0,69,0.00,,---,0.00,VWS V14.01,2013-05-28 15:02:00,
2013-05-28 08:07:00,53.2,43.0,29.59,West,271,4.9,4.9,68,0.00,,---,0.00,VWS V14.01,2013-05-28 15:07:00,
2013-05-28 08:12:00,53.2,43.0,29.59,WNW,285,7.6,7.6,68,0.00,,---,0.00,VWS V14.01,2013-05-28 15:12:00,
2013-05-28 08:17:00,53.6,43.3,29.59,WNW,284,6.3,6.3,68,0.00,,---,0.00,VWS V14.01,2013-05-28 15:17:00,
2013-05-28 08:22:00,53.2,42.6,29.59,WNW,288,4.0,4.0,67,0.00,,---,0.00,VWS V14.01,2013-05-28 15:22:00,
2013-05-28 08:27:00,53.2,42.6,29.59,West,269,5.8,5.8,67,0.00,,---,0.00,VWS V14.01,2013-05-28 15:27:00,
2013-05-28 08:32:00,54.0,43.7,29.56,West,277,5.8,5.8,68,0.00,,---,0.00,VWS V14.01,2013-05-28 15:32:00,
2013-05-28 08:37:00,54.5,44.5,29.56,WNW,285,5.4,5.4,69,0.00,,---,0.00,VWS V14.01,2013-05-28 15:37:00,
2013-05-28 08:42:00,54.7,43.6,29.56,WSW,258,7.6,7.6,66,0.00,,---,0.00,VWS V14.01,2013-05-28 15:42:00,
2013-05-28 08:47:00,55.9,39.5,29.56,WNW,283,8.1,8.1,54,0.04,,---,0.04,VWS V14.01,2013-05-28 15:47:00,
2013-05-28 08:52:00,56.1,37.8,29.56,West,269,5.4,5.4,50,0.04,,---,0.04,VWS V14.01,2013-05-28 15:52:00,
2013-05-28 08:57:00,55.2,34.3,29.59,WNW,288,8.3,8.3,45,0.04,,---,0.04,VWS V14.01,2013-05-28 15:57:00,
2013-05-28 09:02:00,55.2,34.8,29.59,West,270,4.9,4.9,46,0.04,,---,0.04,VWS V14.01,2013-05-28 16:02:00,
2013-05-28 09:07:00,55.6,35.2,29.59,WNW,302,8.3,8.3,46,0.04,,---,0.04,VWS V14.01,2013-05-28 16:07:00,
2013-05-28 09:12:00,55.6,35.2,29.59,West,278,8.7,8.7,46,0.04,,---,0.04,VWS V14.01,2013-05-28 16:12:00,
2013-05-28 09:17:00,55.4,33.3,29.59,WNW,293,10.1,10.1,43,0.04,,---,0.04,VWS V14.01,2013-05-28 16:17:00,
2013-05-28 09:22:00,56.7,33.2,29.59,West,274,12.8,12.8,41,0.04,,---,0.04,VWS V14.01,2013-05-28 16:22:00,
2013-05-28 09:27:00,57.4,32.0,29.59,West,275,12.3,12.3,38,0.04,,---,0.04,VWS V14.01,2013-05-28 16:27:00,
2013-05-28 09:32:00,57.6,32.2,29.59,West,279,11.0,11.0,38,0.04,,---,0.04,VWS V14.01,2013-05-28 16:32:00,
2013-05-28 09:37:00,60.3,32.5,29.59,NW,313,10.1,10.1,35,0.04,,---,0.04,VWS V14.01,2013-05-28 16:37:00,
2013-05-28 09:42:00,64.2,29.6,29.59,WNW,288,12.3,12.3,27,0.04,,---,0.04,VWS V14.01,2013-05-28 16:42:00,
2013-05-28 09:47:00,62.6,26.3,29.59,NW,307,8.7,8.7,25,0.00,,---,0.04,VWS V14.01,2013-05-28 16:47:00,
2013-05-28 09:52:00,66.2,28.4,29.59,West,269,12.8,12.8,24,0.00,,---,0.04,VWS V14.01,2013-05-28 16:52:00,
2013-05-28 09:57:00,66.2,28.4,29.59,WNW,291,8.7,8.7,24,0.00,,---,0.04,VWS V14.01,2013-05-28 16:57:00,
2013-05-28 10:02:00,66.2,28.4,29.59,WSW,250,6.3,6.3,24,0.00,,---,0.04,VWS V14.01,2013-05-28 17:02:00,
2013-05-28 10:07:00,66.9,24.6,29.59,WNW,297,8.7,8.7,20,0.00,,---,0.04,VWS V14.01,2013-05-28 17:07:00,
2013-05-28 10:12:00,68.2,27.9,29.59,WSW,247,8.3,8.3,22,0.00,,---,0.04,VWS V14.01,2013-05-28 17:12:00,
2013-05-28 10:17:00,63.7,23.0,29.59,West,278,11.0,11.0,21,0.00,,---,0.04,VWS V14.01,2013-05-28 17:17:00,
2013-05-28 10:22:00,63.7,23.0,29.59,West,281,15.0,15.0,21,0.00,,---,0.04,VWS V14.01,2013-05-28 17:22:00,
2013-05-28 10:27:00,63.5,22.9,29.59,WNW,293,8.3,8.3,21,0.00,,---,0.04,VWS V14.01,2013-05-28 17:27:00,
2013-05-28 10:32:00,60.4,24.5,29.59,West,280,8.1,8.1,25,0.00,,---,0.04,VWS V14.01,2013-05-28 17:32:00,
2013-05-28 10:37:00,60.4,24.5,29.59,West,260,10.5,10.5,25,0.00,,---,0.04,VWS V14.01,2013-05-28 17:37:00,
2013-05-28 10:42:00,62.6,24.3,29.59,West,274,10.5,10.5,23,0.00,,---,0.04,VWS V14.01,2013-05-28 17:42:00,
2013-05-28 10:47:00,62.6,24.3,29.62,WNW,303,10.5,10.5,23,0.00,,---,0.04,VWS V14.01,2013-05-28 17:47:00,
2013-05-28 10:52:00,63.0,24.6,29.62,West,271,9.6,9.6,23,0.00,,---,0.04,VWS V14.01,2013-05-28 17:52:00,
2013-05-28 10:57:00,61.9,24.7,29.62,WNW,293,7.6,7.6,24,0.00,,---,0.04,VWS V14.01,2013-05-28 17:57:00,
2013-05-28 11:02:00,60.8,23.8,29.62,NW,305,8.1,8.1,24,0.00,,---,0.04,VWS V14.01,2013-05-28 18:02:00,
2013-05-28 11:07:00,59.7,23.9,29.62,NW,307,9.6,9.6,25,0.00,,---,0.04,VWS V14.01,2013-05-28 18:07:00,
2013-05-28 11:12:00,59.7,23.9,29.62,WNW,298,8.7,8.7,25,0.00,,---,0.04,VWS V14.01,2013-05-28 18:12:00,
2013-05-28 11:17:00,59.7,23.9,29.62,WNW,294,11.0,11.0,25,0.00,,---,0.04,VWS V14.01,2013-05-28 18:17:00,
2013-05-28 11:22:00,63.3,22.8,29.62,WNW,288,10.5,10.5,21,0.00,,---,0.04,VWS V14.01,2013-05-28 18:22:00,
2013-05-28 11:27:00,63.0,22.5,29.62,WSW,256,10.1,10.1,21,0.00,,---,0.04,VWS V14.01,2013-05-28 18:27:00,
2013-05-28 11:32:00,64.8,22.8,29.62,WNW,297,6.3,6.3,20,0.00,,---,0.04,VWS V14.01,2013-05-28 18:32:00,
2013-05-28 11:37:00,65.8,21.2,29.62,West,274,8.3,8.7,18,0.00,,---,0.04,VWS V14.01,2013-05-28 18:37:00,
2013-05-28 11:42:00,65.8,21.2,29.62,WNW,296,8.3,8.3,18,0.00,,---,0.04,VWS V14.01,2013-05-28 18:42:00,
2013-05-28 11:47:00,65.8,21.2,29.62,WNW,294,11.0,11.0,18,0.00,,---,0.04,VWS V14.01,2013-05-28 18:47:00,
2013-05-28 11:52:00,63.9,23.2,29.62,WNW,293,10.5,12.8,21,0.00,,---,0.04,VWS V14.01,2013-05-28 18:52:00,
2013-05-28 11:57:00,66.0,17.1,29.62,West,272,11.0,11.0,15,0.00,,---,0.04,VWS V14.01,2013-05-28 18:57:00,
2013-05-28 12:02:00,68.5,19.1,29.62,WNW,283,10.5,10.5,15,0.00,,---,0.04,VWS V14.01,2013-05-28 19:02:00,
2013-05-28 12:07:00,68.4,19.0,29.62,WSW,237,11.9,11.9,15,0.00,,---,0.04,VWS V14.01,2013-05-28 19:07:00,
2013-05-28 12:12:00,68.4,19.0,29.62,WSW,258,9.6,9.6,15,0.00,,---,0.04,VWS V14.01,2013-05-28 19:12:00,
2013-05-28 12:17:00,63.1,19.0,29.62,WNW,282,12.8,12.8,18,0.00,,---,0.04,VWS V14.01,2013-05-28 19:17:00,
2013-05-28 12:22:00,63.1,19.0,29.62,WNW,282,12.8,12.8,18,0.00,,---,0.04,VWS V14.01,2013-05-28 19:22:00,
2013-05-28 12:27:00,65.5,16.6,29.62,WNW,289,15.0,15.0,15,0.00,,---,0.04,VWS V14.01,2013-05-28 19:27:00,
2013-05-28 12:32:00,66.0,17.1,29.62,West,260,8.1,8.1,15,0.00,,---,0.04,VWS V14.01,2013-05-28 19:32:00,
2013-05-28 12:37:00,66.0,17.1,29.62,WNW,297,15.4,15.4,15,0.00,,---,0.04,VWS V14.01,2013-05-28 19:37:00,
2013-05-28 12:42:00,67.6,13.2,29.62,West,276,15.4,15.4,12,0.00,,---,0.04,VWS V14.01,2013-05-28 19:42:00,
2013-05-28 12:47:00,67.6,13.2,29.62,West,262,12.3,12.3,12,0.00,,---,0.04,VWS V14.01,2013-05-28 19:47:00,
2013-05-28 12:52:00,68.4,13.8,29.62,WNW,292,10.5,10.5,12,0.00,,---,0.04,VWS V14.01,2013-05-28 19:52:00,
2013-05-28 12:57:00,68.5,13.9,29.62,West,272,15.0,15.0,12,0.00,,---,0.04,VWS V14.01,2013-05-28 19:57:00,
2013-05-28 13:02:00,68.4,13.8,29.62,WNW,283,12.8,12.8,12,0.00,,---,0.04,VWS V14.01,2013-05-28 20:02:00,
2013-05-28 13:07:00,68.7,14.1,29.62,WNW,293,8.3,8.3,12,0.00,,---,0.04,VWS V14.01,2013-05-28 20:07:00,
2013-05-28 13:12:00,68.5,13.9,29.62,West,281,15.4,15.4,12,0.00,,---,0.04,VWS V14.01,2013-05-28 20:12:00,
2013-05-28 13:17:00,70.7,15.6,29.62,West,281,15.4,15.4,12,0.00,,---,0.04,VWS V14.01,2013-05-28 20:17:00,
2013-05-28 13:22:00,70.2,15.2,29.62,West,268,13.2,13.2,12,0.00,,---,0.04,VWS V14.01,2013-05-28 20:22:00,
2013-05-28 13:27:00,70.7,15.6,29.62,West,262,8.3,8.3,12,0.00,,---,0.04,VWS V14.01,2013-05-28 20:27:00,
2013-05-28 13:32:00,68.9,14.2,29.62,West,278,11.0,11.0,12,0.00,,---,0.04,VWS V14.01,2013-05-28 20:32:00,
2013-05-28 13:37:00,68.9,14.2,29.62,NNW,330,5.8,5.8,12,0.00,,---,0.04,VWS V14.01,2013-05-28 20:37:00,
2013-05-28 13:42:00,68.9,14.2,29.62,NW,315,10.1,10.1,12,0.00,,---,0.04,VWS V14.01,2013-05-28 20:42:00,
2013-05-28 13:47:00,67.8,13.4,29.62,NNW,330,5.8,5.8,12,0.00,,---,0.04,VWS V14.01,2013-05-28 20:47:00,
2013-05-28 13:52:00,67.8,13.4,29.62,WNW,293,11.0,11.0,12,0.00,,---,0.04,VWS V14.01,2013-05-28 20:52:00,
2013-05-28 13:57:00,66.7,12.5,29.62,WNW,292,8.7,8.7,12,0.00,,---,0.04,VWS V14.01,2013-05-28 20:57:00,
2013-05-28 14:02:00,66.2,12.1,29.62,NW,322,5.8,5.8,12,0.00,,---,0.04,VWS V14.01,2013-05-28 21:02:00,
2013-05-28 14:07:00,67.6,13.2,29.62,WNW,288,8.3,8.3,12,0.00,,---,0.04,VWS V14.01,2013-05-28 21:07:00,
2013-05-28 14:12:00,69.3,14.5,29.62,NW,314,8.7,8.7,12,0.00,,---,0.04,VWS V14.01,2013-05-28 21:12:00,
2013-05-28 14:17:00,68.2,13.7,29.62,NW,310,7.6,7.6,12,0.00,,---,0.04,VWS V14.01,2013-05-28 21:17:00,
2013-05-28 14:22:00,68.2,13.7,29.62,WNW,291,8.1,8.1,12,0.00,,---,0.04,VWS V14.01,2013-05-28 21:22:00,
2013-05-28 14:27:00,65.8,13.6,29.62,WNW,295,10.1,10.1,13,0.00,,---,0.04,VWS V14.01,2013-05-28 21:27:00,
2013-05-28 14:32:00,66.6,12.4,29.62,West,270,10.5,10.5,12,0.00,,---,0.04,VWS V14.01,2013-05-28 21:32:00,
2013-05-28 14:37:00,66.2,12.1,29.62,WNW,298,6.3,6.3,12,0.00,,---,0.04,VWS V14.01,2013-05-28 21:37:00,
2013-05-28 14:42:00,66.6,12.4,29.62,NW,313,5.4,5.4,12,0.00,,---,0.04,VWS V14.01,2013-05-28 21:42:00,
2013-05-28 14:47:00,66.6,12.4,29.62,WNW,290,5.4,5.4,12,0.00,,---,0.04,VWS V14.01,2013-05-28 21:47:00,
2013-05-28 14:52:00,66.7,12.5,29.62,WSW,240,13.6,15.0,12,0.00,,---,0.04,VWS V14.01,2013-05-28 21:52:00,
2013-05-28 14:57:00,66.6,12.4,29.62,West,271,8.7,8.7,12,0.00,,---,0.04,VWS V14.01,2013-05-28 21:57:00,
2013-05-28 15:02:00,67.1,12.8,29.62,NW,320,10.5,10.5,12,0.00,,---,0.04,VWS V14.01,2013-05-28 22:02:00,
2013-05-28 15:07:00,67.1,12.8,29.62,NW,304,10.1,10.1,12,0.00,,---,0.04,VWS V14.01,2013-05-28 22:07:00,
2013-05-28 15:12:00,67.1,12.8,29.62,WNW,286,6.3,6.3,12,0.00,,---,0.04,VWS V14.01,2013-05-28 22:12:00,
2013-05-28 15:17:00,68.4,9.7,29.62,WNW,286,6.3,6.3,10,0.00,,---,0.04,VWS V14.01,2013-05-28 22:17:00,
2013-05-28 15:22:00,67.5,9.0,29.62,WNW,301,8.7,8.7,10,0.00,,---,0.04,VWS V14.01,2013-05-28 22:22:00,
2013-05-28 15:27:00,69.4,10.5,29.62,NNW,329,7.6,7.6,10,0.00,,---,0.04,VWS V14.01,2013-05-28 22:27:00,
2013-05-28 15:32:00,69.4,10.5,29.59,West,276,13.2,13.2,10,0.00,,---,0.04,VWS V14.01,2013-05-28 22:32:00,
2013-05-28 15:37:00,71.4,9.7,29.59,WNW,291,10.5,10.5,9,0.00,,---,0.04,VWS V14.01,2013-05-28 22:37:00,
2013-05-28 15:42:00,70.9,9.3,29.59,NW,312,12.3,12.3,9,0.00,,---,0.04,VWS V14.01,2013-05-28 22:42:00,
2013-05-28 15:47:00,70.9,9.3,29.59,NW,312,9.6,9.6,9,0.00,,---,0.04,VWS V14.01,2013-05-28 22:47:00,
2013-05-28 15:52:00,70.9,9.3,29.59,NNW,329,10.1,10.1,9,0.00,,---,0.04,VWS V14.01,2013-05-28 22:52:00,
2013-05-28 15:57:00,70.2,8.7,29.59,NW,321,8.3,8.3,9,0.00,,---,0.04,VWS V14.01,2013-05-28 22:57:00,
2013-05-28 16:02:00,70.0,8.6,29.59,NW,317,8.1,8.1,9,0.00,,---,0.04,VWS V14.01,2013-05-28 23:02:00,
2013-05-28 16:07:00,69.8,8.5,29.59,NW,321,8.1,8.1,9,0.00,,---,0.04,VWS V14.01,2013-05-28 23:07:00,
2013-05-28 16:12:00,69.8,8.5,29.59,NW,308,7.6,11.0,9,0.00,,---,0.04,VWS V14.01,2013-05-28 23:12:00,
2013-05-28 16:17:00,68.7,10.0,29.59,West,263,8.1,8.1,10,0.00,,---,0.04,VWS V14.01,2013-05-28 23:17:00,
2013-05-28 16:22:00,68.7,10.0,29.59,NNW,331,5.8,5.8,10,0.00,,---,0.04,VWS V14.01,2013-05-28 23:22:00,
2013-05-28 16:27:00,68.7,10.0,29.59,NW,307,7.6,7.6,10,0.00,,---,0.04,VWS V14.01,2013-05-28 23:27:00,
2013-05-28 16:32:00,68.7,10.0,29.59,NW,316,11.0,11.0,10,0.00,,---,0.04,VWS V14.01,2013-05-28 23:32:00,
2013-05-28 16:37:00,68.2,9.6,29.59,WNW,298,8.3,8.3,10,0.00,,---,0.04,VWS V14.01,2013-05-28 23:37:00,
2013-05-28 16:42:00,70.0,8.6,29.59,NW,315,10.5,10.5,9,0.00,,---,0.04,VWS V14.01,2013-05-28 23:42:00,
2013-05-28 16:47:00,70.2,8.7,29.59,NW,317,8.7,10.1,9,0.00,,---,0.04,VWS V14.01,2013-05-28 23:47:00,
2013-05-28 16:52:00,71.2,9.6,29.59,NW,305,6.3,6.3,9,0.00,,---,0.04,VWS V14.01,2013-05-28 23:52:00,
2013-05-28 16:57:00,71.6,9.8,29.59,West,281,10.1,10.1,9,0.00,,---,0.04,VWS V14.01,2013-05-28 23:57:00,
2013-05-28 17:02:00,69.1,10.3,29.59,NW,314,8.1,8.1,10,0.00,,---,0.04,VWS V14.01,2013-05-29 00:02:00,
2013-05-28 17:07:00,69.1,10.3,29.59,NW,314,8.3,8.3,10,0.00,,---,0.04,VWS V14.01,2013-05-29 00:07:00,
2013-05-28 17:12:00,67.1,8.7,29.59,NNW,341,6.3,6.3,10,0.00,,---,0.04,VWS V14.01,2013-05-29 00:12:00,
2013-05-28 17:17:00,66.2,8.1,29.59,NNW,327,7.6,8.1,10,0.00,,---,0.04,VWS V14.01,2013-05-29 00:17:00,
2013-05-28 17:22:00,65.8,7.8,29.59,NW,322,7.6,7.6,10,0.00,,---,0.04,VWS V14.01,2013-05-29 00:22:00,
2013-05-28 17:27:00,66.2,8.1,29.59,NW,306,8.1,8.1,10,0.00,,---,0.04,VWS V14.01,2013-05-29 00:27:00,
2013-05-28 17:32:00,65.8,7.8,29.59,WNW,297,5.8,6.7,10,0.00,,---,0.04,VWS V14.01,2013-05-29 00:32:00,
2013-05-28 17:37:00,65.8,7.8,29.59,NW,308,4.9,6.3,10,0.00,,---,0.04,VWS V14.01,2013-05-29 00:37:00,
2013-05-28 17:42:00,65.5,7.5,29.59,NW,307,6.7,6.7,10,0.00,,---,0.04,VWS V14.01,2013-05-29 00:42:00,
2013-05-28 17:47:00,65.8,7.8,29.59,NW,320,5.8,5.8,10,0.00,,---,0.04,VWS V14.01,2013-05-29 00:47:00,
2013-05-28 17:52:00,65.7,7.6,29.59,NW,319,5.4,5.4,10,0.00,,---,0.04,VWS V14.01,2013-05-29 00:52:00,
2013-05-28 17:57:00,65.7,7.6,29.59,NW,319,5.4,5.4,10,0.00,,---,0.04,VWS V14.01,2013-05-29 00:57:00,
2013-05-28 18:02:00,64.6,6.8,29.56,WNW,299,7.6,7.6,10,0.00,,---,0.04,VWS V14.01,2013-05-29 01:02:00,
2013-05-28 18:07:00,64.8,6.9,29.56,NW,318,4.9,4.9,10,0.00,,---,0.04,VWS V14.01,2013-05-29 01:07:00,
2013-05-28 18:12:00,64.8,6.9,29.56,NW,315,6.7,6.7,10,0.00,,---,0.04,VWS V14.01,2013-05-29 01:12:00,
2013-05-28 18:17:00,64.6,6.8,29.56,NW,311,6.3,6.3,10,0.00,,---,0.04,VWS V14.01,2013-05-29 01:17:00,
2013-05-28 18:22:00,64.6,6.8,29.56,NW,319,6.3,6.3,10,0.00,,---,0.04,VWS V14.01,2013-05-29 01:22:00,
2013-05-28 18:27:00,63.3,7.9,29.56,NNW,336,5.8,6.3,11,0.00,,---,0.04,VWS V14.01,2013-05-29 01:27:00,
2013-05-28 18:32:00,63.3,7.9,29.56,WNW,301,5.8,5.8,11,0.00,,---,0.04,VWS V14.01,2013-05-29 01:32:00,
2013-05-28 18:37:00,62.4,7.2,29.56,NW,319,5.4,5.4,11,0.00,,---,0.04,VWS V14.01,2013-05-29 01:37:00,
2013-05-28 18:42:00,62.1,7.0,29.56,WNW,295,4.9,4.9,11,0.00,,---,0.04,VWS V14.01,2013-05-29 01:42:00,
2013-05-28 18:47:00,61.9,6.8,29.56,WNW,300,7.2,7.2,11,0.00,,---,0.04,VWS V14.01,2013-05-29 01:47:00,
2013-05-28 18:52:00,61.5,6.5,29.56,NW,306,4.9,5.4,11,0.00,,---,0.04,VWS V14.01,2013-05-29 01:52:00,
2013-05-28 18:57:00,61.5,6.5,29.56,NW,308,3.6,3.6,11,0.00,,---,0.04,VWS V14.01,2013-05-29 01:57:00,
2013-05-28 19:02:00,61.5,6.5,29.56,WNW,287,3.6,5.4,11,0.00,,---,0.04,VWS V14.01,2013-05-29 02:02:00,
2013-05-28 19:07:00,61.5,6.5,29.53,WNW,294,6.3,6.3,11,0.00,,---,0.04,VWS V14.01,2013-05-29 02:07:00,
2013-05-28 19:12:00,60.6,11.2,29.53,WNW,288,4.9,4.9,14,0.00,,---,0.04,VWS V14.01,2013-05-29 02:12:00,
2013-05-28 19:17:00,60.4,11.0,29.53,WNW,284,5.8,5.8,14,0.00,,---,0.04,VWS V14.01,2013-05-29 02:17:00,
2013-05-28 19:22:00,60.4,11.0,29.53,WNW,284,2.2,3.6,14,0.00,,---,0.04,VWS V14.01,2013-05-29 02:22:00,
2013-05-28 19:27:00,60.4,11.0,29.53,WNW,283,4.9,4.9,14,0.00,,---,0.04,VWS V14.01,2013-05-29 02:27:00,
2013-05-28 19:32:00,59.4,10.2,29.53,WNW,287,3.6,3.6,14,0.00,,---,0.04,VWS V14.01,2013-05-29 02:32:00,
2013-05-28 19:37:00,59.4,10.2,29.53,WNW,300,0.0,3.6,14,0.00,,---,0.04,VWS V14.01,2013-05-29 02:37:00,
2013-05-28 19:42:00,59.4,10.2,29.53,WNW,300,0.0,0.0,14,0.00,,---,0.04,VWS V14.01,2013-05-29 02:42:00,
2013-05-28 19:47:00,59.4,14.6,29.53,WNW,285,0.0,0.0,17,0.00,,---,0.04,VWS V14.01,2013-05-29 02:47:00,
2013-05-28 19:52:00,59.4,14.6,29.50,WNW,283,4.0,4.0,17,0.00,,---,0.04,VWS V14.01,2013-05-29 02:52:00,
2013-05-28 19:57:00,58.6,9.6,29.50,WNW,285,0.0,3.1,14,0.00,,---,0.04,VWS V14.01,2013-05-29 02:57:00,
2013-05-28 20:02:00,58.5,13.8,29.50,WNW,283,4.0,4.0,17,0.00,,---,0.04,VWS V14.01,2013-05-29 03:02:00,
2013-05-28 20:07:00,58.5,13.8,29.50,WNW,293,4.9,4.9,17,0.00,,---,0.04,VWS V14.01,2013-05-29 03:07:00,
2013-05-28 20:12:00,57.6,15.6,29.50,WNW,292,4.0,4.0,19,0.00,,---,0.04,VWS V14.01,2013-05-29 03:12:00,
2013-05-28 20:17:00,57.6,15.6,29.50,WNW,292,3.1,3.6,19,0.00,,---,0.04,VWS V14.01,2013-05-29 03:17:00,
2013-05-28 20:22:00,57.6,15.6,29.50,WNW,292,2.2,2.2,19,0.00,,---,0.04,VWS V14.01,2013-05-29 03:22:00,
2013-05-28 20:27:00,56.3,21.0,29.50,WNW,292,0.0,0.0,25,0.00,,---,0.04,VWS V14.01,2013-05-29 03:27:00,
2013-05-28 20:32:00,56.3,21.0,29.50,WNW,296,3.6,3.6,25,0.00,,---,0.04,VWS V14.01,2013-05-29 03:32:00,
2013-05-28 20:37:00,56.1,20.8,29.50,WNW,296,3.6,3.6,25,0.00,,---,0.04,VWS V14.01,2013-05-29 03:37:00,
2013-05-28 20:42:00,55.9,17.7,29.50,WNW,296,0.0,0.0,22,0.00,,---,0.04,VWS V14.01,2013-05-29 03:42:00,
2013-05-28 20:47:00,55.9,17.7,29.50,WNW,296,0.0,0.0,22,0.00,,---,0.04,VWS V14.01,2013-05-29 03:47:00,
2013-05-28 20:52:00,55.8,17.5,29.50,WNW,296,0.0,0.0,22,0.00,,---,0.04,VWS V14.01,2013-05-29 03:52:00,
2013-05-28 20:57:00,55.8,17.5,29.50,WNW,296,0.0,0.0,22,0.00,,---,0.04,VWS V14.01,2013-05-29 03:57:00,
2013-05-28 21:01:00,55.4,17.2,29.50,WNW,296,0.0,0.0,22,0.00,,---,0.04,VWS V14.01,2013-05-29 04:01:00,
2013-05-28 21:06:00,55.2,18.1,29.50,WNW,296,0.0,0.0,23,0.00,,---,0.04,VWS V14.01,2013-05-29 04:06:00,
2013-05-28 21:11:00,54.5,23.7,29.50,WNW,296,0.0,0.0,30,0.00,,---,0.04,VWS V14.01,2013-05-29 04:11:00,
2013-05-28 21:16:00,54.1,25.7,29.50,WNW,295,0.0,0.0,33,0.00,,---,0.04,VWS V14.01,2013-05-29 04:16:00,
2013-05-28 21:21:00,54.1,25.7,29.47,SSW,207,0.0,0.0,33,0.00,,---,0.04,VWS V14.01,2013-05-29 04:21:00,
2013-05-28 21:26:00,54.1,25.7,29.47,SSW,207,0.0,0.0,33,0.00,,---,0.04,VWS V14.01,2013-05-29 04:26:00,
2013-05-28 21:31:00,53.4,27.1,29.47,SSW,207,0.0,0.0,36,0.00,,---,0.04,VWS V14.01,2013-05-29 04:31:00,
2013-05-28 21:36:00,53.4,27.1,29.47,SSW,207,0.0,0.0,36,0.00,,---,0.04,VWS V14.01,2013-05-29 04:36:00,
2013-05-28 21:41:00,53.6,26.6,29.47,SSW,207,0.0,0.0,35,0.00,,---,0.04,VWS V14.01,2013-05-29 04:41:00,
2013-05-28 21:46:00,53.6,27.3,29.47,SW,221,3.1,3.1,36,0.00,,---,0.04,VWS V14.01,2013-05-29 04:46:00,
2013-05-28 21:51:00,53.6,27.3,29.47,SW,219,3.1,3.1,36,0.00,,---,0.04,VWS V14.01,2013-05-29 04:51:00,
2013-05-28 21:56:00,53.2,27.7,29.47,SW,219,0.0,0.0,37,0.00,,---,0.04,VWS V14.01,2013-05-29 04:56:00,
2013-05-28 22:01:00,53.2,27.0,29.47,SW,219,0.0,0.0,36,0.00,,---,0.04,VWS V14.01,2013-05-29 05:01:00,
2013-05-28 22:06:00,53.2,27.0,29.47,SW,219,0.0,0.0,36,0.00,,---,0.04,VWS V14.01,2013-05-29 05:06:00,
2013-05-28 22:11:00,54.1,27.1,29.47,SW,219,0.0,0.0,35,0.00,,---,0.04,VWS V14.01,2013-05-29 05:11:00,
2013-05-28 22:16:00,54.1,27.1,29.47,SW,219,0.0,0.0,35,0.00,,---,0.04,VWS V14.01,2013-05-29 05:16:00,
2013-05-28 22:21:00,53.1,26.8,29.47,SW,219,0.0,0.0,36,0.00,,---,0.04,VWS V14.01,2013-05-29 05:21:00,
2013-05-28 22:26:00,52.3,26.9,29.47,SW,219,0.0,0.0,37,0.00,,---,0.04,VWS V14.01,2013-05-29 05:26:00,
2013-05-28 22:31:00,52.0,26.5,29.47,SW,219,0.0,0.0,37,0.00,,---,0.04,VWS V14.01,2013-05-29 05:31:00,
2013-05-28 22:36:00,52.2,31.5,29.47,SW,219,0.0,0.0,45,0.00,,---,0.04,VWS V14.01,2013-05-29 05:36:00,
2013-05-28 22:41:00,51.8,32.2,29.47,SW,219,0.0,0.0,47,0.00,,---,0.04,VWS V14.01,2013-05-29 05:41:00,
2013-05-28 22:46:00,51.6,33.6,29.47,SW,219,0.0,0.0,50,0.00,,---,0.04,VWS V14.01,2013-05-29 05:46:00,
2013-05-28 22:51:00,51.6,33.6,29.47,SW,219,0.0,0.0,50,0.00,,---,0.04,VWS V14.01,2013-05-29 05:51:00,
2013-05-28 22:56:00,51.6,33.6,29.47,SE,146,0.0,0.0,50,0.00,,---,0.04,VWS V14.01,2013-05-29 05:56:00,
2013-05-28 23:01:00,50.9,34.9,29.47,SSE,164,3.6,3.6,54,0.00,,---,0.04,VWS V14.01,2013-05-29 06:01:00,
2013-05-28 23:06:00,50.9,34.9,29.47,SSE,160,4.0,4.0,54,0.00,,---,0.04,VWS V14.01,2013-05-29 06:06:00,
2013-05-28 23:11:00,50.9,35.3,29.47,SSE,168,5.8,5.8,55,0.00,,---,0.04,VWS V14.01,2013-05-29 06:11:00,
2013-05-28 23:16:00,50.9,35.8,29.47,SE,146,4.0,4.0,56,0.00,,---,0.04,VWS V14.01,2013-05-29 06:16:00,
2013-05-28 23:21:00,50.9,35.8,29.47,South,178,3.6,3.6,56,0.04,,---,0.08,VWS V14.01,2013-05-29 06:21:00,
2013-05-28 23:26:00,50.9,35.8,29.47,SE,145,4.0,4.0,56,0.04,,---,0.08,VWS V14.01,2013-05-29 06:26:00,
2013-05-28 23:31:00,50.7,37.8,29.44,SSE,149,3.6,3.6,61,0.04,,---,0.08,VWS V14.01,2013-05-29 06:31:00,
2013-05-28 23:36:00,50.5,38.0,29.44,SSE,158,0.0,0.0,62,0.04,,---,0.08,VWS V14.01,2013-05-29 06:36:00,
2013-05-28 23:41:00,50.5,38.4,29.44,SSE,158,0.0,0.0,63,0.08,,---,0.12,VWS V14.01,2013-05-29 06:41:00,
2013-05-28 23:46:00,50.5,38.4,29.44,SSE,167,0.0,0.0,63,0.08,,---,0.12,VWS V14.01,2013-05-29 06:46:00,
2013-05-28 23:51:00,50.5,38.4,29.44,West,261,0.0,0.0,63,0.08,,---,0.12,VWS V14.01,2013-05-29 06:51:00,
2013-05-28 23:56:00,50.7,39.4,29.44,West,261,0.0,0.0,65,0.08,,---,0.12,VWS V14.01,2013-05-29 06:56:00,